Time;durP1;ratioP1;P1;durP2;ratioP2;P2;SDS_P1;SDS_P2;PMS_P1;PMS_P2;Temp;Humidity;BMP_temperature;BMP_pressure;BME280_temperature;BME280_humidity;BME280_pressure;Samples;Min_cycle;Max_cycle;Signal;HPM_P1;HPM_P2
2023/08/09 00:01:18;;;;;;;1.20;1.00;;;13.90;99.90;13.90;100250.00;;;;4990460;27;108831;-66
2023/08/09 00:03:44;;;;;;;1.10;1.00;;;13.90;99.90;13.80;100249.00;;;;4985234;27;117664;-66
2023/08/09 00:06:09;;;;;;;1.10;0.93;;;13.80;99.90;13.70;100245.00;;;;4988845;27;88054;-67
2023/08/09 00:08:35;;;;;;;1.37;1.13;;;13.70;99.90;13.70;100248.00;;;;4991076;27;108645;-67
2023/08/09 00:11:01;;;;;;;0.60;0.60;;;13.60;99.90;13.60;100233.00;;;;4984946;27;88017;-66
2023/08/09 00:13:27;;;;;;;1.00;0.90;;;13.60;99.90;13.60;100232.00;;;;4987281;27;117056;-66
2023/08/09 00:15:53;;;;;;;1.17;1.07;;;13.60;99.90;13.60;100224.00;;;;4987294;27;116768;-66
2023/08/09 00:18:19;;;;;;;1.10;0.90;;;13.60;99.90;13.50;100216.00;;;;4992421;27;87857;-66
2023/08/09 00:20:44;;;;;;;0.90;0.60;;;13.50;99.90;13.50;100227.00;;;;4990476;27;87673;-67
2023/08/09 00:23:10;;;;;;;0.53;0.53;;;13.50;99.90;13.50;100223.00;;;;4992148;27;87835;-65
2023/08/09 00:25:38;;;;;;;1.20;1.00;;;13.50;99.90;13.50;100217.00;;;;4988050;27;117464;-66
2023/08/09 00:28:04;;;;;;;2.60;0.90;;;13.50;99.90;13.40;100214.00;;;;4990274;27;87880;-66
2023/08/09 00:30:30;;;;;;;0.73;0.70;;;13.40;99.90;13.40;100216.00;;;;4990900;27;88088;-64
2023/08/09 00:32:56;;;;;;;1.27;1.17;;;13.40;99.90;13.40;100224.00;;;;4991532;27;87148;-66
2023/08/09 00:35:22;;;;;;;1.00;1.00;;;13.30;99.90;13.30;100221.00;;;;4990013;27;87860;-65
2023/08/09 00:37:47;;;;;;;1.70;1.23;;;13.30;99.90;13.30;100226.00;;;;4986818;27;109188;-65
2023/08/09 00:40:13;;;;;;;1.80;1.17;;;13.30;99.90;13.30;100216.00;;;;4986831;27;97772;-67
2023/08/09 00:42:41;;;;;;;1.53;1.07;;;13.30;99.90;13.30;100218.00;;;;4985043;27;117625;-66
2023/08/09 00:45:07;;;;;;;2.30;1.10;;;13.30;99.90;13.20;100217.00;;;;4986219;28;88484;-66
2023/08/09 00:47:35;;;;;;;1.60;1.07;;;13.20;99.90;13.20;100213.00;;;;4981947;27;88486;-66
2023/08/09 00:50:02;;;;;;;0.87;0.80;;;13.20;99.90;13.20;100215.00;;;;4985604;27;88150;-67
2023/08/09 00:52:28;;;;;;;1.40;1.30;;;13.20;99.90;13.20;100213.00;;;;4990864;27;87871;-67
2023/08/09 00:54:55;;;;;;;0.60;0.60;;;13.20;99.90;13.20;100211.00;;;;4986217;27;105337;-67
2023/08/09 00:57:21;;;;;;;0.77;0.77;;;13.20;99.90;13.20;100220.00;;;;4986055;27;110452;-66
2023/08/09 00:59:46;;;;;;;0.73;0.73;;;13.20;99.90;13.20;100216.00;;;;4986606;27;108543;-66
2023/08/09 01:02:12;;;;;;;3.27;1.10;;;13.20;99.90;13.20;100208.00;;;;4984025;27;117620;-66
2023/08/09 01:04:39;;;;;;;1.63;1.00;;;13.10;99.90;13.20;100210.00;;;;4986824;27;89104;-66
2023/08/09 01:07:16;;;;;;;1.30;0.90;;;13.20;99.90;13.10;100205.00;;;;4987048;27;87941;-66
2023/08/09 01:09:50;;;;;;;0.60;0.60;;;13.30;99.90;13.10;100211.00;;;;4986631;27;87825;-66
2023/08/09 01:12:23;;;;;;;1.30;1.20;;;13.10;99.90;13.10;100204.00;;;;4990224;27;88136;-65
2023/08/09 01:14:52;;;;;;;7.93;0.90;;;13.10;99.90;13.10;100199.00;;;;4985470;27;87881;-66
2023/08/09 01:17:20;;;;;;;8.10;1.13;;;13.10;99.90;13.10;100209.00;;;;4981212;28;87892;-66
2023/08/09 01:19:53;;;;;;;1.30;0.80;;;13.10;99.90;13.10;100207.00;;;;4986707;27;87859;-66
2023/08/09 01:22:33;;;;;;;0.90;0.90;;;13.10;99.90;13.10;100207.00;;;;4989757;28;86983;-66
2023/08/09 01:25:06;;;;;;;7.93;1.53;;;13.20;99.90;13.10;100202.00;;;;4997884;27;88423;-66
2023/08/09 01:27:33;;;;;;;1.20;1.10;;;13.10;99.90;13.10;100203.00;;;;4986005;28;87528;-67
2023/08/09 01:30:00;;;;;;;0.70;0.70;;;13.10;99.90;13.20;100199.00;;;;4986957;28;90478;-68
2023/08/09 01:32:28;;;;;;;1.60;0.53;;;13.20;99.90;13.20;100202.00;;;;4982522;27;88366;-67
2023/08/09 01:34:54;;;;;;;1.23;0.87;;;13.20;99.90;13.20;100211.00;;;;4985356;27;88334;-68
2023/08/09 01:37:40;;;;;;;1.00;0.93;;;13.20;99.90;13.20;100209.00;;;;4988049;27;87716;-68
2023/08/09 01:40:11;;;;;;;0.80;0.80;;;13.20;99.90;13.30;100204.00;;;;4986000;27;87936;-66
2023/08/09 01:42:39;;;;;;;1.10;1.00;;;13.30;99.90;13.30;100199.00;;;;4985786;27;88945;-67
2023/08/09 01:45:08;;;;;;;1.17;0.73;;;13.30;99.90;13.30;100207.00;;;;4985925;27;88644;-65
2023/08/09 01:47:34;;;;;;;0.80;0.80;;;13.30;99.90;13.30;100199.00;;;;4985648;27;87245;-65
2023/08/09 01:50:00;;;;;;;1.50;0.90;;;13.40;99.90;13.40;100205.00;;;;4982969;27;108317;-65
2023/08/09 01:52:26;;;;;;;1.47;1.30;;;13.30;99.90;13.40;100199.00;;;;4985867;27;117097;-65
2023/08/09 01:54:53;;;;;;;1.13;0.80;;;13.30;99.90;13.40;100209.00;;;;4985102;27;89105;-66
2023/08/09 01:57:20;;;;;;;1.93;1.00;;;13.40;99.90;13.40;100214.00;;;;4984548;27;88055;-66
2023/08/09 01:59:46;;;;;;;1.63;1.50;;;13.40;99.90;13.40;100214.00;;;;4989488;27;87883;-65
2023/08/09 02:02:12;;;;;;;0.80;0.80;;;13.40;99.90;13.40;100207.00;;;;4987044;27;88830;-67
2023/08/09 02:04:37;;;;;;;0.70;0.70;;;13.40;99.90;13.40;100201.00;;;;4988562;27;116545;-66
2023/08/09 02:07:04;;;;;;;0.87;0.87;;;13.40;99.90;13.40;100206.00;;;;4991422;27;87631;-67
2023/08/09 02:09:30;;;;;;;7.73;1.50;;;13.40;99.90;13.50;100202.00;;;;4990115;27;87927;-67
2023/08/09 02:11:56;;;;;;;0.97;0.80;;;13.40;99.90;13.50;100194.00;;;;4996265;27;87258;-66
2023/08/09 02:14:22;;;;;;;0.60;0.60;;;13.40;99.90;13.50;100195.00;;;;4990676;27;87955;-67
2023/08/09 02:16:48;;;;;;;1.27;0.97;;;13.40;99.90;13.50;100173.00;;;;4995410;27;110646;-67
2023/08/09 02:19:14;;;;;;;1.90;1.00;;;13.50;99.90;13.50;100176.00;;;;4991324;27;88732;-67
2023/08/09 02:21:43;;;;;;;0.70;0.70;;;13.50;99.90;13.50;100180.00;;;;4990414;27;116766;-66
2023/08/09 02:24:10;;;;;;;2.07;0.80;;;13.50;99.90;13.50;100176.00;;;;4983523;27;88643;-67
2023/08/09 02:26:38;;;;;;;1.33;0.87;;;13.50;99.90;13.50;100168.00;;;;4989960;27;87929;-66
2023/08/09 02:29:04;;;;;;;0.90;0.80;;;13.50;99.90;13.60;100172.00;;;;4989935;27;87807;-66
2023/08/09 02:31:31;;;;;;;2.57;0.80;;;13.50;99.90;13.60;100160.00;;;;4990658;27;88226;-67
2023/08/09 02:33:57;;;;;;;0.93;0.80;;;13.60;99.90;13.60;100152.00;;;;4993287;27;87852;-65
2023/08/09 02:36:24;;;;;;;0.53;0.53;;;13.50;99.90;13.60;100157.00;;;;4988510;27;101927;-65
2023/08/09 02:38:50;;;;;;;1.30;0.97;;;13.60;99.90;13.60;100160.00;;;;4993014;27;95792;-65
2023/08/09 02:41:15;;;;;;;1.07;0.70;;;13.60;99.90;13.60;100152.00;;;;4987115;27;116571;-65
2023/08/09 02:43:41;;;;;;;0.50;0.50;;;13.60;99.90;13.70;100148.00;;;;4987235;27;112987;-66
2023/08/09 02:46:07;;;;;;;1.20;1.08;;;13.60;99.90;13.70;100153.00;;;;4987427;28;109665;-66
2023/08/09 02:48:32;;;;;;;0.60;0.60;;;13.60;99.90;13.70;100143.00;;;;4989497;27;108589;-65
2023/08/09 02:50:58;;;;;;;2.70;0.60;;;13.60;99.90;13.70;100144.00;;;;4991478;27;99171;-66
2023/08/09 02:53:33;;;;;;;0.90;0.90;;;13.70;99.90;13.70;100139.00;;;;4986601;27;115416;-65
2023/08/09 02:55:58;;;;;;;1.33;1.07;;;13.70;99.90;13.70;100137.00;;;;4990731;27;88091;-66
2023/08/09 02:58:24;;;;;;;1.13;0.80;;;13.70;99.90;13.80;100135.00;;;;4988040;27;108745;-65
2023/08/09 03:00:51;;;;;;;2.43;0.67;;;13.70;99.90;13.80;100149.00;;;;4991496;27;88380;-65
2023/08/09 03:03:17;;;;;;;0.85;0.80;;;13.70;99.90;13.80;100145.00;;;;4986378;27;115526;-67
2023/08/09 03:05:42;;;;;;;0.90;0.80;;;13.70;99.90;13.80;100147.00;;;;4987580;27;110107;-66
2023/08/09 03:08:08;;;;;;;0.93;0.40;;;13.70;99.90;13.80;100142.00;;;;4987385;28;109431;-66
2023/08/09 03:10:33;;;;;;;2.00;0.80;;;13.90;99.90;13.80;100139.00;;;;4987191;27;91744;-66
2023/08/09 03:12:59;;;;;;;1.30;0.82;;;13.80;99.90;13.80;100131.00;;;;4985567;27;117695;-66
2023/08/09 03:15:25;;;;;;;1.23;1.00;;;13.80;99.90;13.80;100136.00;;;;4989508;27;110694;-66
2023/08/09 03:17:50;;;;;;;0.67;0.60;;;13.80;99.90;13.80;100146.00;;;;4987375;27;105528;-66
2023/08/09 03:20:17;;;;;;;1.30;1.20;;;13.70;99.90;13.70;100147.00;;;;4986203;27;118275;-67
2023/08/09 03:22:48;;;;;;;0.90;0.80;;;13.70;99.90;13.70;100142.00;;;;4986343;27;88829;-67
2023/08/09 03:25:14;;;;;;;1.30;1.13;;;13.70;99.90;13.60;100146.00;;;;4989236;28;87071;-66
2023/08/09 03:27:40;;;;;;;1.33;0.80;;;13.60;99.90;13.60;100150.00;;;;4990074;28;89327;-66
2023/08/09 03:30:08;;;;;;;0.77;0.77;;;13.60;99.90;13.50;100156.00;;;;4986779;28;88075;-67
2023/08/09 03:32:37;;;;;;;0.77;0.67;;;13.50;99.90;13.40;100167.00;;;;4988470;27;91349;-67
2023/08/09 03:35:05;;;;;;;2.10;1.20;;;13.50;99.90;13.40;100166.00;;;;4987742;28;87937;-67
2023/08/09 03:37:31;;;;;;;1.20;1.10;;;13.40;99.90;13.30;100176.00;;;;4988001;28;88092;-68
2023/08/09 03:39:56;;;;;;;0.73;0.70;;;13.30;99.90;13.30;100176.00;;;;4989414;27;116096;-66
2023/08/09 03:42:22;;;;;;;0.93;0.73;;;13.30;99.90;13.20;100189.00;;;;4987382;27;117960;-66
2023/08/09 03:44:48;;;;;;;2.03;1.33;;;13.20;99.90;13.20;100178.00;;;;4985648;27;109849;-67
2023/08/09 03:47:14;;;;;;;1.67;1.30;;;13.20;99.90;13.20;100185.00;;;;4988585;27;88953;-68
2023/08/09 03:49:39;;;;;;;1.13;0.97;;;13.20;99.90;13.10;100197.00;;;;4990222;27;87265;-68
2023/08/09 03:52:06;;;;;;;2.07;0.90;;;13.10;99.90;13.10;100196.00;;;;4986878;27;117118;-69
2023/08/09 03:54:32;;;;;;;0.90;0.90;;;13.20;99.90;13.10;100185.00;;;;4992153;27;88784;-65
2023/08/09 03:56:57;;;;;;;1.20;1.10;;;13.10;99.90;13.10;100194.00;;;;4991190;28;109990;-66
2023/08/09 03:59:23;;;;;;;1.20;1.10;;;13.10;99.90;13.10;100193.00;;;;4988949;27;114722;-66
2023/08/09 04:01:49;;;;;;;1.53;1.30;;;13.10;99.90;13.00;100202.00;;;;4986548;27;116612;-66
2023/08/09 04:04:14;;;;;;;2.53;1.67;;;13.10;99.90;13.00;100195.00;;;;4987445;27;110380;-66
2023/08/09 04:06:40;;;;;;;0.90;0.73;;;12.90;99.90;13.10;100198.00;;;;4992292;27;96394;-65
2023/08/09 04:09:07;;;;;;;0.93;0.93;;;13.00;99.90;13.00;100200.00;;;;4989124;27;88178;-64
2023/08/09 04:11:33;;;;;;;3.03;1.43;;;13.00;99.90;13.00;100201.00;;;;4990263;27;89091;-65
2023/08/09 04:13:58;;;;;;;1.07;0.97;;;13.00;99.90;13.00;100206.00;;;;4988800;27;87251;-64
2023/08/09 04:16:25;;;;;;;1.37;0.83;;;12.70;99.90;13.00;100210.00;;;;4989864;27;108205;-64
2023/08/09 04:18:51;;;;;;;1.27;1.10;;;13.00;99.90;13.00;100216.00;;;;4991086;27;89020;-65
2023/08/09 04:21:17;;;;;;;2.10;1.07;;;13.00;99.90;13.00;100226.00;;;;4989434;27;88845;-65
2023/08/09 04:23:42;;;;;;;2.20;1.40;;;13.00;99.90;13.00;100225.00;;;;4990844;27;88005;-64
2023/08/09 04:26:08;;;;;;;1.37;1.27;;;12.90;99.90;13.00;100236.00;;;;4989355;27;87810;-64
2023/08/09 04:28:34;;;;;;;3.40;1.20;;;13.00;99.90;13.00;100237.00;;;;4988477;27;119349;-64
2023/08/09 04:31:01;;;;;;;1.87;1.30;;;12.90;99.90;12.90;100237.00;;;;4989229;27;114429;-64
2023/08/09 04:33:27;;;;;;;2.13;0.90;;;12.90;99.90;13.00;100232.00;;;;4988832;27;87897;-64
2023/08/09 04:35:53;;;;;;;2.00;1.37;;;12.90;99.90;12.90;100237.00;;;;5004523;27;109155;-63
2023/08/09 04:38:19;;;;;;;2.63;1.80;;;12.90;99.90;12.90;100236.00;;;;4998256;27;102149;-63
2023/08/09 04:40:45;;;;;;;2.43;1.20;;;12.90;99.90;12.90;100246.00;;;;4986085;27;88028;-63
2023/08/09 04:43:11;;;;;;;2.37;1.57;;;12.90;99.90;12.90;100246.00;;;;4996009;28;87967;-64
2023/08/09 04:45:38;;;;;;;0.93;0.83;;;12.90;99.90;12.90;100254.00;;;;4980962;27;89190;-63
2023/08/09 04:48:05;;;;;;;1.33;0.97;;;12.90;99.90;12.90;100259.00;;;;4982563;27;89079;-62
2023/08/09 04:50:31;;;;;;;1.67;1.10;;;12.90;99.90;12.90;100261.00;;;;4988990;27;88249;-63
2023/08/09 04:52:57;;;;;;;1.30;1.20;;;12.90;99.90;12.90;100267.00;;;;4985703;27;102911;-63
2023/08/09 04:55:22;;;;;;;2.03;1.40;;;12.90;99.90;12.90;100265.00;;;;4985583;27;88649;-64
2023/08/09 04:57:48;;;;;;;1.13;1.13;;;12.90;99.90;12.90;100270.00;;;;4984019;27;118050;-64
2023/08/09 05:00:14;;;;;;;0.97;0.97;;;12.90;99.90;12.90;100274.00;;;;4986799;27;116413;-65
2023/08/09 05:02:40;;;;;;;0.87;0.80;;;12.90;99.90;12.90;100281.00;;;;4984791;27;100072;-63
2023/08/09 05:05:10;;;;;;;1.80;1.67;;;12.90;99.90;13.00;100277.00;;;;4985851;27;109636;-63
2023/08/09 05:07:37;;;;;;;1.13;1.03;;;12.90;99.90;12.90;100275.00;;;;4989408;27;89071;-64
2023/08/09 05:10:04;;;;;;;4.40;1.50;;;12.90;99.90;12.90;100280.00;;;;4987856;27;89518;-64
2023/08/09 05:12:31;;;;;;;1.07;1.07;;;12.90;99.90;12.90;100279.00;;;;4984958;27;88509;-64
2023/08/09 05:14:57;;;;;;;2.43;1.57;;;12.90;99.90;12.90;100267.00;;;;4990879;27;106723;-64
2023/08/09 05:17:23;;;;;;;1.60;1.43;;;12.90;99.90;12.90;100266.00;;;;4986767;27;88099;-64
2023/08/09 05:19:49;;;;;;;1.40;1.13;;;12.90;99.90;12.90;100244.00;;;;4984705;27;89714;-63
2023/08/09 05:22:15;;;;;;;1.60;1.50;;;12.90;99.90;12.90;100235.00;;;;4987716;27;110994;-63
2023/08/09 05:24:41;;;;;;;3.00;1.50;;;12.90;99.90;12.90;100264.00;;;;4990541;27;108990;-64
2023/08/09 05:27:07;;;;;;;1.53;1.43;;;12.90;99.90;12.90;100302.00;;;;4985925;27;87345;-64
2023/08/09 05:29:32;;;;;;;2.20;1.23;;;12.80;99.90;12.90;100291.00;;;;4987240;27;116881;-63
2023/08/09 05:31:58;;;;;;;1.23;1.13;;;12.90;99.90;12.80;100284.00;;;;4992227;27;87935;-63
2023/08/09 05:34:24;;;;;;;1.37;1.20;;;12.80;99.90;12.80;100275.00;;;;4989422;27;92776;-63
2023/08/09 05:36:50;;;;;;;1.87;1.73;;;12.80;99.90;12.80;100245.00;;;;4990375;27;100739;-63
2023/08/09 05:39:15;;;;;;;1.10;1.00;;;12.80;99.90;12.80;100212.00;;;;4988867;27;117706;-64
2023/08/09 05:41:41;;;;;;;4.63;1.57;;;12.80;99.90;12.80;100214.00;;;;5002494;27;110748;-62
2023/08/09 05:44:07;;;;;;;1.00;1.00;;;12.70;99.90;12.70;100228.00;;;;4987047;27;107999;-63
2023/08/09 05:46:33;;;;;;;1.37;1.27;;;12.70;99.90;12.70;100233.00;;;;4993999;27;88398;-64
2023/08/09 05:48:59;;;;;;;1.00;0.93;;;12.70;99.90;12.70;100234.00;;;;4993405;27;88044;-63
2023/08/09 05:51:25;;;;;;;2.67;1.60;;;12.70;99.90;12.70;100237.00;;;;4988865;27;92364;-63
2023/08/09 05:53:54;;;;;;;4.17;1.73;;;12.60;99.90;12.60;100225.00;;;;4987968;27;108237;-63
2023/08/09 05:56:19;;;;;;;1.07;0.90;;;12.70;99.90;12.70;100209.00;;;;4987395;27;118504;-64
2023/08/09 05:58:45;;;;;;;1.93;1.30;;;12.70;99.90;12.70;100195.00;;;;4988589;27;116519;-64
2023/08/09 06:01:11;;;;;;;1.77;1.20;;;12.60;99.90;12.60;100184.00;;;;4989761;27;110974;-61
2023/08/09 06:03:39;;;;;;;1.33;1.20;;;12.60;99.90;12.60;100177.00;;;;4994563;27;87758;-63
2023/08/09 06:06:10;;;;;;;7.07;1.60;;;12.60;99.90;12.60;100177.00;;;;4993199;27;89092;-64
2023/08/09 06:08:36;;;;;;;0.83;0.77;;;12.60;99.90;12.60;100164.00;;;;4987258;27;88478;-64
2023/08/09 06:11:03;;;;;;;3.00;1.10;;;12.60;99.90;12.60;100167.00;;;;4986139;27;110376;-64
2023/08/09 06:13:29;;;;;;;1.80;1.33;;;12.60;99.90;12.60;100162.00;;;;4986138;27;87927;-63
2023/08/09 06:15:56;;;;;;;2.27;1.40;;;12.60;99.90;12.60;100174.00;;;;4986876;27;88251;-64
2023/08/09 06:18:22;;;;;;;6.13;1.70;;;12.60;99.90;12.60;100174.00;;;;4985522;27;110909;-64
2023/08/09 06:20:48;;;;;;;1.10;1.00;;;12.60;99.90;12.60;100172.00;;;;4985088;27;111296;-65
2023/08/09 06:23:23;;;;;;;1.63;1.23;;;12.60;99.90;12.70;100185.00;;;;4984438;27;89890;-65
2023/08/09 06:25:49;;;;;;;1.20;0.83;;;12.70;99.90;12.70;100187.00;;;;4984331;27;88655;-65
2023/08/09 06:28:17;;;;;;;1.33;1.23;;;12.70;99.90;12.70;100198.00;;;;4986454;27;88256;-65
2023/08/09 06:30:43;;;;;;;1.77;1.30;;;12.70;99.90;12.80;100223.00;;;;4983927;27;87741;-65
2023/08/09 06:33:09;;;;;;;1.27;0.80;;;12.70;99.90;12.90;100232.00;;;;4987553;27;91813;-65
2023/08/09 06:35:34;;;;;;;0.97;0.97;;;12.80;99.90;12.90;100254.00;;;;4986723;27;114186;-64
2023/08/09 06:38:00;;;;;;;1.20;1.10;;;12.80;99.90;13.00;100259.00;;;;4986526;27;117487;-66
2023/08/09 06:40:26;;;;;;;1.53;1.43;;;12.90;99.90;13.10;100243.00;;;;4986118;27;110225;-65
2023/08/09 06:42:51;;;;;;;1.67;1.57;;;13.00;99.90;13.10;100266.00;;;;4986254;27;109520;-65
2023/08/09 06:45:17;;;;;;;1.70;1.37;;;13.10;99.90;13.20;100286.00;;;;4982380;27;118826;-64
2023/08/09 06:47:43;;;;;;;1.23;1.13;;;13.10;99.90;13.20;100292.00;;;;4983744;27;118001;-65
2023/08/09 06:50:09;;;;;;;1.20;1.10;;;13.20;99.90;13.30;100291.00;;;;4981907;27;109439;-64
2023/08/09 06:52:36;;;;;;;2.87;1.57;;;13.20;99.90;13.40;100282.00;;;;4984198;27;88068;-65
2023/08/09 06:55:03;;;;;;;2.13;1.20;;;13.30;99.90;13.40;100286.00;;;;4985078;27;88995;-65
2023/08/09 06:57:29;;;;;;;1.13;1.03;;;13.40;99.90;13.50;100289.00;;;;4983678;27;104405;-63
2023/08/09 06:59:56;;;;;;;2.10;1.53;;;13.40;99.90;13.60;100291.00;;;;4983842;27;109480;-65
2023/08/09 07:02:22;;;;;;;0.80;0.80;;;13.50;99.90;13.60;100290.00;;;;4984686;27;88172;-65
2023/08/09 07:04:53;;;;;;;1.53;1.00;;;13.60;99.90;13.70;100286.00;;;;4982858;27;104433;-64
2023/08/09 07:07:20;;;;;;;1.40;1.00;;;13.70;99.90;13.80;100293.00;;;;4983584;28;90484;-66
2023/08/09 07:09:45;;;;;;;2.07;1.60;;;13.70;99.90;13.90;100296.00;;;;4984496;28;87898;-65
2023/08/09 07:12:11;;;;;;;1.57;1.33;;;13.70;99.90;14.00;100289.00;;;;4982973;27;107050;-66
2023/08/09 07:14:37;;;;;;;3.83;1.23;;;13.90;99.90;14.10;100289.00;;;;4985895;27;117513;-66
2023/08/09 07:17:03;;;;;;;2.17;1.55;;;14.00;99.90;14.30;100293.00;;;;4983394;27;116552;-67
2023/08/09 07:19:35;;;;;;;1.45;1.17;;;14.20;99.90;14.50;100295.00;;;;4981314;27;90342;-66
2023/08/09 07:22:00;;;;;;;2.67;1.13;;;14.40;99.90;14.70;100304.00;;;;4984340;27;108944;-66
2023/08/09 07:24:26;;;;;;;1.88;1.48;;;14.50;99.90;14.80;100300.00;;;;4983040;27;117822;-67
2023/08/09 07:26:51;;;;;;;0.85;0.85;;;14.70;99.90;15.00;100306.00;;;;4982301;28;117082;-66
2023/08/09 07:29:20;;;;;;;4.82;1.23;;;14.90;99.90;15.20;100312.00;;;;4987398;27;108776;-67
2023/08/09 07:31:46;;;;;;;0.68;0.68;;;15.10;99.90;15.40;100304.00;;;;4984111;27;88044;-67
2023/08/09 07:34:12;;;;;;;0.93;0.85;;;15.30;99.90;15.50;100304.00;;;;4980142;28;117692;-68
2023/08/09 07:36:37;;;;;;;1.13;0.77;;;15.40;99.90;15.70;100321.00;;;;4982209;28;117693;-68
2023/08/09 07:39:03;;;;;;;0.88;0.70;;;15.60;99.90;15.90;100321.00;;;;4980202;27;108500;-68
2023/08/09 07:41:29;;;;;;;1.42;1.30;;;15.80;99.90;16.10;100316.00;;;;4983826;28;88002;-69
2023/08/09 07:43:55;;;;;;;0.60;0.60;;;16.10;99.90;16.40;100313.00;;;;4982754;27;109309;-70
2023/08/09 07:46:20;;;;;;;0.50;0.50;;;16.30;99.90;16.70;100319.00;;;;4984293;27;117616;-70
2023/08/09 07:48:46;;;;;;;0.70;0.70;;;16.50;99.90;16.90;100332.00;;;;4983730;27;87959;-71
2023/08/09 07:51:12;;;;;;;0.85;0.60;;;16.80;99.90;17.20;100331.00;;;;4982087;28;108639;-71
2023/08/09 07:53:39;;;;;;;1.63;1.02;;;17.10;99.90;17.50;100325.00;;;;4983158;27;117243;-70
2023/08/09 07:56:04;;;;;;;0.90;0.68;;;17.40;99.90;17.80;100333.00;;;;4982895;27;108329;-70
2023/08/09 07:58:30;;;;;;;0.70;0.70;;;17.70;99.90;18.10;100341.00;;;;4987429;27;87773;-70
2023/08/09 08:00:56;;;;;;;0.60;0.60;;;18.00;99.90;18.50;100340.00;;;;4984498;27;108195;-70
2023/08/09 08:03:22;;;;;;;0.95;0.70;;;18.40;99.90;18.80;100353.00;;;;4983256;27;89069;-69
2023/08/09 08:05:47;;;;;;;1.02;0.77;;;18.70;99.90;19.10;100353.00;;;;4980107;27;116905;-68
2023/08/09 08:08:14;;;;;;;2.40;0.93;;;19.00;99.90;19.30;100351.00;;;;4981276;27;93545;-68
2023/08/09 08:10:41;;;;;;;0.60;0.57;;;19.30;99.90;19.50;100350.00;;;;4982580;27;87692;-66
2023/08/09 08:13:07;;;;;;;0.80;0.80;;;19.50;99.90;19.80;100356.00;;;;4983145;27;89082;-66
2023/08/09 08:15:32;;;;;;;0.82;0.50;;;19.70;99.90;19.90;100367.00;;;;4984409;27;104694;-66
2023/08/09 08:17:58;;;;;;;0.50;0.50;;;19.90;99.90;20.00;100368.00;;;;4984114;27;110655;-66
2023/08/09 08:20:24;;;;;;;0.50;0.50;;;20.00;99.90;20.00;100368.00;;;;4981466;27;93742;-68
2023/08/09 08:22:59;;;;;;;1.38;0.45;;;20.00;99.90;20.00;100372.00;;;;4979796;27;88948;-67
2023/08/09 08:25:25;;;;;;;0.40;0.40;;;20.00;99.90;20.00;100373.00;;;;4978879;28;115422;-67
2023/08/09 08:27:50;;;;;;;0.52;0.40;;;20.00;99.90;20.20;100373.00;;;;4982278;27;87764;-67
2023/08/09 08:30:20;;;;;;;1.20;0.88;;;20.10;99.90;20.30;100374.00;;;;4982057;27;88301;-67
2023/08/09 08:32:47;;;;;;;0.80;0.73;;;20.20;99.90;20.30;100370.00;;;;4984238;27;88375;-67
2023/08/09 08:35:18;;;;;;;2.40;0.65;;;20.30;99.90;20.20;100375.00;;;;4982531;27;88000;-69
2023/08/09 08:37:44;;;;;;;0.70;0.57;;;20.20;99.90;20.20;100373.00;;;;4984565;27;88081;-69
2023/08/09 08:40:17;;;;;;;0.40;0.40;;;20.20;99.90;20.10;100391.00;;;;4984584;27;108180;-69
2023/08/09 08:42:44;;;;;;;0.68;0.68;;;20.10;99.90;20.10;100387.00;;;;4982728;27;88089;-68
2023/08/09 08:45:11;;;;;;;1.15;0.57;;;20.00;99.90;20.10;100379.00;;;;4983411;27;88506;-69
2023/08/09 08:47:42;;;;;;;0.73;0.40;;;20.00;99.90;20.10;100394.00;;;;4988658;27;88041;-68
2023/08/09 08:50:10;;;;;;;0.88;0.50;;;20.00;99.90;20.30;100401.00;;;;4980138;27;88781;-67
2023/08/09 08:52:40;;;;;;;0.38;0.38;;;20.20;99.90;20.50;100403.00;;;;4979549;27;88120;-67
2023/08/09 08:55:11;;;;;;;0.57;0.50;;;20.30;99.90;20.70;100396.00;;;;4981588;27;88874;-68
2023/08/09 08:57:38;;;;;;;0.70;0.52;;;20.50;99.90;20.90;100404.00;;;;4980925;27;87822;-67
2023/08/09 09:00:16;;;;;;;0.70;0.70;;;20.70;99.90;21.00;100411.00;;;;4984791;27;88660;-67
2023/08/09 09:02:46;;;;;;;0.95;0.70;;;20.90;99.90;21.00;100410.00;;;;4982886;27;88095;-68
2023/08/09 09:05:13;;;;;;;0.70;0.50;;;20.90;99.90;21.00;100410.00;;;;4979991;27;87683;-67
2023/08/09 09:07:41;;;;;;;0.50;0.40;;;20.90;99.90;21.10;100408.00;;;;4980738;27;87099;-67
2023/08/09 09:10:12;;;;;;;2.70;0.68;;;21.00;99.90;21.40;100413.00;;;;4982917;27;87655;-67
2023/08/09 09:12:41;;;;;;;0.63;0.63;;;21.20;99.90;21.80;100421.00;;;;4984724;27;88847;-67
2023/08/09 09:15:08;;;;;;;0.20;0.20;;;21.50;99.90;21.90;100412.00;;;;4983744;27;88744;-67
2023/08/09 09:17:38;;;;;;;0.43;0.38;;;21.70;99.90;21.90;100422.00;;;;4984637;27;87793;-67
2023/08/09 09:20:10;;;;;;;0.98;0.73;;;21.70;99.90;21.90;100424.00;;;;4984316;27;87994;-69
2023/08/09 09:22:36;;;;;;;0.68;0.65;;;21.80;99.90;22.10;100421.00;;;;4981449;27;88619;-68
2023/08/09 09:25:10;;;;;;;0.80;0.80;;;21.90;99.90;22.30;100412.00;;;;4981021;27;88101;-67
2023/08/09 09:27:37;;;;;;;0.85;0.73;;;22.10;99.90;22.50;100423.00;;;;4981303;27;87809;-68
2023/08/09 09:30:12;;;;;;;1.63;0.50;;;22.20;99.90;22.60;100428.00;;;;4980628;27;87949;-69
2023/08/09 09:32:41;;;;;;;0.60;0.60;;;22.30;99.90;22.60;100430.00;;;;4980852;27;88215;-67
2023/08/09 09:35:08;;;;;;;0.50;0.50;;;22.40;99.90;22.90;100431.00;;;;4980914;27;87966;-68
2023/08/09 09:37:35;;;;;;;0.38;0.38;;;22.60;99.90;23.20;100447.00;;;;4981738;27;88065;-67
2023/08/09 09:40:01;;;;;;;0.50;0.50;;;22.90;99.90;23.50;100437.00;;;;4986057;27;88538;-67
2023/08/09 09:42:34;;;;;;;0.50;0.50;;;23.20;99.90;23.50;100434.00;;;;4984044;27;89182;-67
2023/08/09 09:45:25;;;;;;;0.80;0.77;;;23.30;98.70;23.20;100441.00;;;;4982466;27;88416;-68
2023/08/09 09:47:55;;;;;;;0.57;0.40;;;23.20;97.50;23.00;100439.00;;;;4986955;27;88489;-67
2023/08/09 09:50:22;;;;;;;0.55;0.38;;;23.00;96.50;23.10;100436.00;;;;4984994;27;87933;-67
2023/08/09 09:52:50;;;;;;;0.30;0.30;;;22.90;95.90;23.30;100435.00;;;;4978762;27;88767;-65
2023/08/09 09:55:19;;;;;;;0.47;0.45;;;23.00;95.00;23.40;100439.00;;;;4983020;27;88045;-67
2023/08/09 09:57:45;;;;;;;1.48;0.63;;;23.20;93.50;23.60;100447.00;;;;4993473;27;87421;-69
2023/08/09 10:00:14;;;;;;;0.55;0.35;;;23.30;92.90;23.70;100437.00;;;;4991464;27;87896;-67
2023/08/09 10:02:49;;;;;;;1.52;0.30;;;23.40;92.40;23.90;100439.00;;;;4987202;27;88020;-69
2023/08/09 10:05:19;;;;;;;0.45;0.32;;;23.50;91.90;24.20;100443.00;;;;4985455;27;88869;-68
2023/08/09 10:07:46;;;;;;;0.55;0.38;;;23.80;91.50;24.50;100435.00;;;;4968993;28;87703;-70
2023/08/09 10:10:13;;;;;;;1.08;0.50;;;24.10;90.80;24.80;100445.00;;;;4987956;27;87585;-68
2023/08/09 10:12:49;;;;;;;0.32;0.32;;;24.30;89.70;25.10;100440.00;;;;4987769;27;107465;-72
2023/08/09 10:15:20;;;;;;;0.47;0.20;;;24.60;88.10;25.30;100446.00;;;;4992524;27;87936;-72
2023/08/09 10:17:49;;;;;;;0.50;0.32;;;24.80;84.10;25.10;100449.00;;;;4983560;27;87799;-75
2023/08/09 10:20:16;;;;;;;0.98;0.57;;;24.80;80.30;24.80;100450.00;;;;4984718;27;88183;-68
2023/08/09 10:22:47;;;;;;;0.20;0.20;;;24.60;79.70;24.50;100459.00;;;;4984642;27;118140;-68
2023/08/09 10:25:13;;;;;;;0.25;0.25;;;24.30;78.70;24.40;100447.00;;;;4985621;27;88013;-72
2023/08/09 10:27:49;;;;;;;0.10;0.10;;;24.10;78.20;24.30;100442.00;;;;4984726;27;87822;-73
2023/08/09 10:30:17;;;;;;;0.38;0.30;;;24.00;76.50;24.20;100442.00;;;;4982872;27;88967;-73
2023/08/09 10:32:56;;;;;;;2.45;0.60;;;24.00;72.70;24.00;100435.00;;;;4984652;27;88942;-71
2023/08/09 10:35:51;;;;;;;0.20;0.20;;;23.80;70.80;24.20;100452.00;;;;4991857;27;88120;-75
2023/08/09 10:38:37;;;;;;;0.43;0.43;;;23.80;72.80;24.20;100449.00;;;;4985705;27;87926;-74
2023/08/09 10:41:09;;;;;;;1.40;0.40;;;23.80;62.70;24.20;100459.00;;;;4979981;27;108171;-70
2023/08/09 10:43:35;;;;;;;2.05;0.30;;;23.80;62.70;24.20;100445.00;;;;4984770;27;87943;-71
2023/08/09 10:46:24;;;;;;;0.20;0.20;;;23.80;63.20;24.20;100444.00;;;;4984988;27;117022;-72